Kalvesta, Kansas
Current Conditions -  °F | °C
As of 3:52 PM on Friday 31 Oct 2014 (Local Time) from KDDC Reporting Station
Clear Clear  
Wind Chill: 46°   Ceiling: Unl
Heat Index: 49°   Visibility: 10mi
Dew Point: 21°   Wind: 7mph
Humidity: 33%   Direction: 80°E
Pressure: 30.41"   Gusts: NA
Location:  37.8692°N, 100.332°W
Report Text: KDDC 312052Z AUTO 08006KT 10SM CLR 09/M06 A3041 RMK AO2 SLP303 T00941061 56028
Loading
Personal Weather Stations






























Interactive Weather Map
Tropical Storm Tracking
New forecast layout! Learn more

10-Day Weather Forecast

Advertisements
Track Severe Weather on mobile